Time;durP1;ratioP1;P1;durP2;ratioP2;P2;SDS_P1;SDS_P2;PMS_P1;PMS_P2;Temp;Humidity;BMP_temperature;BMP_pressure;BME280_temperature;BME280_humidity;BME280_pressure;Samples;Min_cycle;Max_cycle;Signal;HPM_P1;HPM_P2
2022/04/18 00:01:54;;;;;;;13.95;4.97;;;;;;;11.18;50.92;98622.03;5097214;28;20054;-49
2022/04/18 00:04:19;;;;;;;5.57;2.95;;;;;;;11.40;50.24;98617.31;5098509;28;20580;-50
2022/04/18 00:06:45;;;;;;;5.72;3.25;;;;;;;11.57;49.97;98616.88;5098471;28;20020;-49
2022/04/18 00:09:11;;;;;;;6.07;3.25;;;;;;;11.73;49.54;98615.56;5098419;28;20059;-49
2022/04/18 00:11:37;;;;;;;7.68;4.03;;;;;;;11.82;49.56;98606.44;5098461;28;20367;-49
2022/04/18 00:14:03;;;;;;;11.73;4.03;;;;;;;11.94;49.08;98610.03;5097106;28;20115;-50
2022/04/18 00:16:29;;;;;;;8.18;4.88;;;;;;;11.92;48.91;98606.81;5098385;28;20400;-50
2022/04/18 00:18:55;;;;;;;6.88;3.30;;;;;;;11.91;49.01;98610.47;5097095;28;20115;-50
2022/04/18 00:21:21;;;;;;;8.07;2.92;;;;;;;11.78;49.22;98608.69;5096973;28;20489;-51
2022/04/18 00:23:46;;;;;;;6.78;3.53;;;;;;;11.77;49.09;98606.25;5098275;28;20063;-50
2022/04/18 00:26:13;;;;;;;6.38;3.05;;;;;;;11.82;48.75;98605.63;5098218;28;20012;-49
2022/04/18 00:28:39;;;;;;;8.27;3.90;;;;;;;11.74;48.25;98612.75;5098277;28;20063;-50
2022/04/18 00:31:05;;;;;;;13.07;7.03;;;;;;;11.52;48.87;98619.31;5098201;28;20381;-50
2022/04/18 00:33:31;;;;;;;7.13;3.90;;;;;;;11.44;48.99;98609.84;5098255;28;20559;-51
2022/04/18 00:35:57;;;;;;;7.63;3.78;;;;;;;11.24;49.30;98614.34;5096611;28;20044;-50
2022/04/18 00:38:23;;;;;;;7.10;3.83;;;;;;;10.94;49.39;98612.19;5098114;28;20577;-50
2022/04/18 00:40:49;;;;;;;5.18;3.55;;;;;;;10.63;50.45;98607.56;5098147;28;20393;-50
2022/04/18 00:43:15;;;;;;;10.40;6.63;;;;;;;10.49;50.44;98607.56;5096876;28;20024;-51
2022/04/18 00:45:41;;;;;;;22.58;10.38;;;;;;;10.36;50.92;98615.41;5098005;28;20442;-49
2022/04/18 00:48:07;;;;;;;10.13;6.65;;;;;;;10.35;51.31;98617.22;5098094;28;20031;-50
2022/04/18 00:50:35;;;;;;;12.38;4.50;;;;;;;10.44;51.28;98612.59;5098011;28;20067;-50
2022/04/18 00:53:04;;;;;;;24.90;6.28;;;;;;;10.62;50.91;98616.44;5098089;28;20461;-49
2022/04/18 00:55:32;;;;;;;6.75;3.15;;;;;;;10.83;50.13;98610.19;5096663;28;20020;-49
2022/04/18 00:58:00;;;;;;;11.52;6.88;;;;;;;10.83;50.03;98618.06;5096659;28;20027;-49
2022/04/18 01:00:26;;;;;;;5.47;4.72;;;;;;;10.76;50.12;98616.22;5097935;28;20016;-49
2022/04/18 01:02:52;;;;;;;13.02;7.22;;;;;;;10.76;50.29;98615.41;5094656;28;20509;-49
2022/04/18 01:05:18;;;;;;;7.15;4.53;;;;;;;10.87;49.78;98614.00;5094635;28;20513;-49
2022/04/18 01:07:44;;;;;;;2.88;2.58;;;;;;;10.84;49.68;98612.59;5094724;28;20390;-50
2022/04/18 01:10:10;;;;;;;10.02;4.45;;;;;;;10.72;49.77;98607.13;5094672;28;20023;-49
2022/04/18 01:12:38;;;;;;;11.52;5.45;;;;;;;10.76;50.04;98610.97;5094637;28;20400;-48
2022/04/18 01:15:04;;;;;;;8.25;5.10;;;;;;;10.85;50.04;98598.47;5094582;28;20024;-50
2022/04/18 01:17:29;;;;;;;10.32;6.25;;;;;;;10.91;50.04;98610.78;5094479;28;20024;-49
2022/04/18 01:19:55;;;;;;;9.48;4.35;;;;;;;10.98;49.62;98600.25;5093180;28;20031;-50
2022/04/18 01:22:22;;;;;;;6.28;3.40;;;;;;;10.95;49.39;98604.09;5094407;28;20579;-50
2022/04/18 01:30:17;;;;;;;11.90;5.28;;;;;;;10.90;49.64;98603.88;5094287;28;20406;-49
2022/04/18 01:32:43;;;;;;;7.35;3.78;;;;;;;10.97;49.19;98607.31;5094206;28;20028;-50
2022/04/18 01:35:09;;;;;;;9.07;4.20;;;;;;;10.93;48.99;98600.88;5093869;28;20573;-49
2022/04/18 01:37:36;;;;;;;8.32;4.30;;;;;;;10.88;49.01;98605.13;5092794;28;20050;-50
2022/04/18 01:40:05;;;;;;;8.25;3.92;;;;;;;10.72;49.48;98607.13;5094080;28;20027;-49
2022/04/18 01:42:31;;;;;;;9.95;6.05;;;;;;;10.72;49.03;98604.50;5092642;28;20389;-49
2022/04/18 01:44:57;;;;;;;7.65;4.28;;;;;;;10.64;48.92;98603.91;5093954;28;20024;-49
2022/04/18 01:47:23;;;;;;;5.88;3.85;;;;;;;10.47;49.55;98606.94;5093896;28;20028;-49
2022/04/18 01:49:49;;;;;;;8.30;4.60;;;;;;;10.33;49.66;98605.34;5092611;28;20043;-49
2022/04/18 01:52:15;;;;;;;15.15;4.85;;;;;;;10.31;50.00;98592.41;5093831;28;20024;-49
2022/04/18 01:54:41;;;;;;;7.50;3.20;;;;;;;10.23;50.07;98589.94;5093824;28;20024;-50
2022/04/18 01:57:07;;;;;;;6.82;3.80;;;;;;;10.28;49.65;98589.34;5092466;28;20405;-49
2022/04/18 01:59:32;;;;;;;13.57;7.88;;;;;;;10.31;49.72;98587.16;5093724;28;20036;-50
2022/04/18 02:01:58;;;;;;;9.63;5.03;;;;;;;10.27;49.93;98585.91;5092326;28;20020;-49
2022/04/18 02:04:24;;;;;;;10.10;5.93;;;;;;;10.18;50.14;98585.31;5093544;28;20019;-50
2022/04/18 02:06:49;;;;;;;7.28;5.03;;;;;;;10.05;50.14;98576.63;5092258;28;20051;-50
2022/04/18 02:09:15;;;;;;;16.08;6.82;;;;;;;9.84;50.73;98586.25;5092165;28;20028;-51
2022/04/18 02:11:41;;;;;;;6.93;4.38;;;;;;;9.76;50.26;98584.63;5092165;28;20024;-49
2022/04/18 02:14:06;;;;;;;15.20;3.78;;;;;;;9.67;50.87;98585.78;5093135;28;20478;-50
2022/04/18 02:16:32;;;;;;;8.45;4.00;;;;;;;9.66;50.75;98589.44;5093375;28;20021;-50
2022/04/18 02:18:58;;;;;;;7.13;2.70;;;;;;;9.72;50.99;98577.38;5093360;28;20482;-50
2022/04/18 02:21:24;;;;;;;8.52;2.83;;;;;;;9.74;50.74;98588.47;5093303;28;20028;-49
2022/04/18 02:23:50;;;;;;;12.35;4.18;;;;;;;9.66;50.18;98588.59;5091976;28;20452;-50
2022/04/18 02:26:16;;;;;;;7.75;3.88;;;;;;;9.58;50.95;98587.78;5093091;28;20027;-49
2022/04/18 02:28:42;;;;;;;4.25;2.72;;;;;;;9.50;51.08;98598.44;5093164;28;20027;-49
2022/04/18 02:31:08;;;;;;;5.30;3.38;;;;;;;9.35;50.62;98598.56;5091794;28;20498;-50
2022/04/18 02:33:34;;;;;;;6.43;2.58;;;;;;;9.16;51.61;98596.66;5093156;28;20402;-50
2022/04/18 02:36:02;;;;;;;8.60;6.07;;;;;;;9.00;51.71;98598.59;5092777;28;20093;-50
2022/04/18 02:38:29;;;;;;;5.65;4.65;;;;;;;9.03;51.90;98593.97;5091636;28;20066;-50
2022/04/18 02:40:55;;;;;;;7.65;4.10;;;;;;;8.96;51.54;98604.41;5092915;28;20027;-49
2022/04/18 02:43:21;;;;;;;9.50;4.93;;;;;;;8.90;52.15;98605.16;5093037;28;20421;-50
2022/04/18 02:45:46;;;;;;;11.23;8.20;;;;;;;8.92;51.87;98601.34;5091460;28;20395;-50
2022/04/18 02:48:12;;;;;;;5.97;3.47;;;;;;;8.81;51.95;98601.88;5092773;28;20063;-50
2022/04/18 02:50:38;;;;;;;3.30;3.00;;;;;;;8.60;52.72;98607.97;5091479;28;20028;-49
2022/04/18 02:53:07;;;;;;;6.82;4.18;;;;;;;8.50;53.35;98607.47;5092696;28;20027;-50
2022/04/18 02:55:33;;;;;;;6.28;3.65;;;;;;;8.39;53.68;98598.28;5092662;28;20024;-49
2022/04/18 02:57:59;;;;;;;12.90;3.97;;;;;;;8.29;53.98;98603.03;5091331;28;20024;-48
2022/04/18 03:00:24;;;;;;;9.43;4.22;;;;;;;8.30;54.22;98600.25;5092625;28;20025;-48
2022/04/18 03:02:50;;;;;;;8.27;5.00;;;;;;;8.26;54.09;98604.22;5091264;28;20024;-50
2022/04/18 03:05:16;;;;;;;4.70;3.13;;;;;;;8.30;53.88;98602.84;5092393;28;20028;-49
2022/04/18 03:07:42;;;;;;;10.05;4.25;;;;;;;8.28;53.50;98597.00;5092513;28;20398;-49
2022/04/18 03:10:08;;;;;;;39.15;34.15;;;;;;;8.23;53.86;98609.84;5092335;28;20024;-49
2022/04/18 03:12:34;;;;;;;7.07;6.13;;;;;;;8.21;53.57;98606.59;5091078;28;20379;-49
2022/04/18 03:15:00;;;;;;;11.82;4.35;;;;;;;8.13;54.27;98610.16;5092356;28;20374;-50
2022/04/18 03:17:26;;;;;;;7.00;3.90;;;;;;;8.05;54.54;98604.22;5092271;28;20023;-50
2022/04/18 03:19:54;;;;;;;6.32;3.00;;;;;;;8.00;54.69;98610.00;5092569;28;20035;-49
2022/04/18 03:22:20;;;;;;;6.28;3.28;;;;;;;8.02;55.00;98601.97;5092204;28;20294;-49
2022/04/18 03:24:46;;;;;;;4.60;2.75;;;;;;;8.02;55.50;98607.22;5091877;28;20391;-50
2022/04/18 03:27:12;;;;;;;5.43;2.75;;;;;;;8.09;55.07;98608.06;5090375;28;20077;-50
2022/04/18 03:29:38;;;;;;;6.13;3.58;;;;;;;8.18;54.91;98607.75;5090827;28;20016;-49
2022/04/18 03:32:05;;;;;;;7.63;3.35;;;;;;;8.20;54.54;98602.34;5092088;28;20394;-50
2022/04/18 03:34:31;;;;;;;8.00;3.25;;;;;;;8.12;55.63;98595.44;5091791;28;20626;-49
2022/04/18 03:39:56;;;;;;;5.65;2.63;;;;;;;8.25;55.03;98605.22;5092325;28;20071;-49
2022/04/18 03:42:32;;;;;;;4.18;2.00;;;;;;;8.33;54.62;98609.50;5091970;28;20442;-48
2022/04/18 03:45:00;;;;;;;6.47;2.80;;;;;;;8.26;54.34;98604.22;5091918;28;20057;-49
2022/04/18 03:47:27;;;;;;;5.32;3.20;;;;;;;8.14;54.76;98606.53;5091953;28;20020;-49
2022/04/18 03:49:54;;;;;;;3.75;2.30;;;;;;;8.10;54.79;98602.66;5090575;28;20056;-49
2022/04/18 03:52:19;;;;;;;6.82;2.85;;;;;;;8.01;55.57;98601.19;5090535;28;20024;-49
2022/04/18 03:54:46;;;;;;;6.38;2.60;;;;;;;8.09;55.45;98597.63;5091864;28;20098;-49
2022/04/18 03:57:14;;;;;;;8.18;3.00;;;;;;;8.13;55.10;98591.84;5091789;28;20023;-49
2022/04/18 03:59:40;;;;;;;4.97;2.28;;;;;;;8.18;55.27;98594.69;5091812;28;20520;-50
2022/04/18 04:02:06;;;;;;;6.75;3.35;;;;;;;8.25;55.08;98593.94;5091791;28;20055;-49
2022/04/18 04:04:32;;;;;;;16.65;4.15;;;;;;;8.32;54.38;98593.00;5090346;28;20082;-48
2022/04/18 04:06:58;;;;;;;8.48;2.50;;;;;;;8.29;54.57;98597.81;5091695;28;20062;-50
2022/04/18 04:09:24;;;;;;;5.60;2.38;;;;;;;8.18;54.49;98592.09;5090377;28;20024;-48
2022/04/18 04:11:51;;;;;;;7.03;2.72;;;;;;;8.03;54.11;98596.56;5091672;28;20028;-49
2022/04/18 04:14:17;;;;;;;7.18;2.28;;;;;;;7.99;54.74;98597.94;5091934;28;20028;-49
2022/04/18 04:16:43;;;;;;;5.20;2.83;;;;;;;7.94;54.96;98595.06;5090359;28;20425;-48
2022/04/18 04:19:08;;;;;;;5.43;2.45;;;;;;;7.96;55.03;98598.31;5091619;28;20016;-49
2022/04/18 04:21:35;;;;;;;6.57;3.40;;;;;;;8.05;54.00;98599.81;5090230;28;20574;-49
2022/04/18 04:24:02;;;;;;;6.68;3.00;;;;;;;7.96;54.10;98599.09;5091585;28;20024;-50
2022/04/18 04:26:28;;;;;;;4.47;2.70;;;;;;;7.79;55.06;98608.19;5091502;28;20052;-49
2022/04/18 04:28:54;;;;;;;4.90;2.78;;;;;;;7.78;55.26;98607.34;5090209;28;20024;-49
2022/04/18 04:31:20;;;;;;;6.00;2.95;;;;;;;7.81;55.35;98608.81;5091501;28;20030;-49
2022/04/18 04:33:45;;;;;;;6.72;2.78;;;;;;;7.76;55.32;98614.56;5091533;28;20429;-50
2022/04/18 04:36:15;;;;;;;3.97;2.70;;;;;;;7.71;55.26;98619.53;5091198;28;20047;-49
2022/04/18 04:38:41;;;;;;;5.07;3.08;;;;;;;7.49;55.26;98607.44;5095309;28;20043;-49
2022/04/18 04:41:07;;;;;;;7.93;3.40;;;;;;;7.29;55.96;98607.97;5095279;28;20012;-48
2022/04/18 04:43:33;;;;;;;3.85;2.53;;;;;;;7.23;56.75;98616.53;5095209;28;20020;-50
2022/04/18 04:46:02;;;;;;;5.68;3.58;;;;;;;7.33;56.50;98608.44;5095042;28;20020;-49
2022/04/18 04:48:28;;;;;;;7.68;3.22;;;;;;;7.48;56.03;98605.78;5095112;28;20024;-48
2022/04/18 04:50:54;;;;;;;9.38;2.65;;;;;;;7.52;55.97;98614.88;5095084;28;20164;-49
2022/04/18 04:53:20;;;;;;;14.23;3.15;;;;;;;7.40;56.25;98615.38;5094995;28;20046;-49
2022/04/18 04:55:45;;;;;;;9.02;3.47;;;;;;;7.52;56.63;98617.50;5093655;28;20425;-49
2022/04/18 04:58:11;;;;;;;5.28;2.90;;;;;;;7.61;55.65;98621.63;5093671;28;20107;-49
2022/04/18 05:00:38;;;;;;;4.68;2.85;;;;;;;7.57;55.86;98625.59;5094999;28;20039;-49
2022/04/18 05:03:05;;;;;;;6.53;3.00;;;;;;;7.49;56.63;98630.94;5094864;28;20043;-49
2022/04/18 05:05:32;;;;;;;8.88;3.03;;;;;;;7.60;56.04;98635.69;5094667;28;20031;-50
2022/04/18 05:07:58;;;;;;;9.25;2.92;;;;;;;7.83;56.06;98626.88;5094740;28;20107;-49
2022/04/18 05:10:24;;;;;;;5.75;2.72;;;;;;;8.28;54.79;98624.97;5094999;28;20028;-49
2022/04/18 05:12:50;;;;;;;9.68;2.55;;;;;;;9.19;52.40;98625.91;5094649;28;20035;-49
2022/04/18 05:15:16;;;;;;;6.15;2.88;;;;;;;10.07;49.70;98619.19;5094654;28;20083;-49
2022/04/18 05:17:41;;;;;;;7.47;2.40;;;;;;;10.59;48.04;98621.09;5094611;28;20514;-50
2022/04/18 05:20:09;;;;;;;7.15;2.38;;;;;;;11.00;46.53;98621.84;5094410;28;20069;-50
2022/04/18 05:22:35;;;;;;;4.70;2.33;;;;;;;11.39;46.12;98633.31;5094483;28;20482;-50
2022/04/18 05:25:01;;;;;;;6.60;2.50;;;;;;;11.90;44.99;98632.53;5094331;28;20065;-49
2022/04/18 05:27:26;;;;;;;7.65;2.65;;;;;;;12.46;43.91;98628.34;5094608;28;20109;-48
2022/04/18 05:29:52;;;;;;;8.15;3.47;;;;;;;12.96;42.76;98627.53;5094293;28;20513;-48
2022/04/18 05:32:18;;;;;;;11.23;2.75;;;;;;;13.43;40.91;98627.88;5093004;28;20031;-50
2022/04/18 05:34:44;;;;;;;6.85;2.22;;;;;;;13.80;39.89;98630.47;5093939;28;20528;-49
2022/04/18 05:37:10;;;;;;;5.05;2.53;;;;;;;13.94;39.45;98631.94;5092895;28;20109;-48
2022/04/18 05:39:36;;;;;;;7.80;3.42;;;;;;;14.37;39.99;98628.28;5094206;28;20021;-50
2022/04/18 05:42:03;;;;;;;6.00;2.70;;;;;;;14.69;38.98;98629.84;5094030;28;20050;-50
2022/04/18 05:44:32;;;;;;;7.28;2.22;;;;;;;14.89;38.03;98642.72;5094006;28;20028;-53
2022/04/18 05:46:57;;;;;;;6.25;2.65;;;;;;;15.30;37.50;98648.94;5092643;28;20024;-49
2022/04/18 05:49:23;;;;;;;10.57;3.55;;;;;;;15.50;37.21;98643.28;5093258;28;20020;-49
2022/04/18 05:51:49;;;;;;;22.58;4.00;;;;;;;15.86;37.96;98651.94;5093870;28;20032;-50
2022/04/18 05:54:15;;;;;;;8.27;2.90;;;;;;;16.45;37.28;98654.34;5093890;28;20026;-49
2022/04/18 05:56:41;;;;;;;13.77;2.78;;;;;;;17.05;36.09;98653.72;5092469;28;20020;-50
2022/04/18 05:59:07;;;;;;;21.70;3.10;;;;;;;17.65;35.28;98660.09;5092415;28;20432;-50
2022/04/18 06:01:35;;;;;;;17.13;3.13;;;;;;;18.44;34.13;98653.50;5093731;28;20454;-49
2022/04/18 06:04:01;;;;;;;19.20;3.40;;;;;;;19.08;32.82;98654.56;5093688;28;20024;-51
2022/04/18 06:06:27;;;;;;;18.55;3.40;;;;;;;19.84;31.38;98653.31;5092504;28;20034;-50
2022/04/18 06:08:53;;;;;;;9.68;2.78;;;;;;;20.52;30.03;98647.84;5093567;28;20027;-51
2022/04/18 06:11:18;;;;;;;7.55;2.70;;;;;;;20.75;29.25;98651.91;5092164;28;20063;-51
2022/04/18 06:13:44;;;;;;;10.90;2.85;;;;;;;20.82;29.10;98652.41;5092156;28;20051;-51
2022/04/18 06:16:10;;;;;;;9.63;6.93;;;;;;;20.47;29.02;98646.00;5093368;28;20030;-50
2022/04/18 06:18:35;;;;;;;11.35;6.30;;;;;;;20.30;28.98;98648.09;5093447;28;20031;-49
2022/04/18 06:21:01;;;;;;;9.63;5.95;;;;;;;20.29;29.08;98651.84;5093332;28;20024;-51
2022/04/18 06:23:27;;;;;;;8.52;5.53;;;;;;;20.20;28.89;98650.75;5091945;28;20065;-50
2022/04/18 06:25:53;;;;;;;8.18;4.60;;;;;;;20.54;28.64;98651.06;5093156;28;20016;-50
2022/04/18 06:28:19;;;;;;;5.85;3.00;;;;;;;20.90;28.13;98649.19;5093171;28;20509;-51
2022/04/18 06:30:45;;;;;;;6.05;2.45;;;;;;;21.08;27.00;98639.03;5093174;28;20554;-50
2022/04/18 06:33:14;;;;;;;6.80;2.40;;;;;;;20.66;27.58;98648.16;5093141;28;20103;-51
2022/04/18 06:35:41;;;;;;;7.95;2.63;;;;;;;20.32;28.13;98640.63;5091447;28;20513;-51
2022/04/18 06:38:08;;;;;;;7.53;2.70;;;;;;;20.43;28.00;98641.47;5092965;28;20035;-51
2022/04/18 06:40:34;;;;;;;3.92;2.00;;;;;;;20.64;28.09;98643.09;5091737;28;20031;-50
2022/04/18 06:42:59;;;;;;;2.65;1.83;;;;;;;20.80;27.29;98648.41;5092915;28;20032;-49
2022/04/18 06:45:26;;;;;;;2.85;2.25;;;;;;;20.55;27.89;98648.13;5092803;28;20390;-50
2022/04/18 06:47:52;;;;;;;4.68;2.20;;;;;;;20.60;28.38;98649.22;5092787;28;20545;-50
2022/04/18 06:50:18;;;;;;;3.80;2.13;;;;;;;20.94;27.77;98636.91;5092764;28;20107;-51
2022/04/18 06:52:49;;;;;;;5.72;2.17;;;;;;;21.24;27.59;98639.81;5092748;28;20024;-51
2022/04/18 06:55:16;;;;;;;5.38;2.97;;;;;;;21.30;27.50;98642.19;5092753;28;20513;-51
2022/04/18 06:57:42;;;;;;;3.80;2.00;;;;;;;21.51;27.44;98648.28;5092716;28;20028;-51
2022/04/18 07:00:08;;;;;;;6.72;2.22;;;;;;;22.18;26.98;98647.97;5090339;28;20563;-52
2022/04/18 07:02:34;;;;;;;5.32;2.20;;;;;;;22.42;26.41;98650.75;5091208;28;20058;-52
2022/04/18 07:05:00;;;;;;;9.63;2.33;;;;;;;23.01;25.97;98656.94;5092475;28;20509;-50
2022/04/18 07:07:26;;;;;;;3.88;2.10;;;;;;;24.41;24.66;98652.31;5092477;28;20508;-51
2022/04/18 07:09:52;;;;;;;7.43;2.88;;;;;;;25.67;23.03;98643.38;5092411;28;20020;-51
2022/04/18 07:12:22;;;;;;;8.13;2.00;;;;;;;26.54;21.99;98635.25;5091084;28;20020;-52
2022/04/18 07:14:48;;;;;;;4.28;2.30;;;;;;;27.34;20.45;98638.09;5092387;28;20028;-51
2022/04/18 07:17:14;;;;;;;5.85;2.20;;;;;;;27.25;20.49;98633.47;5092312;28;20031;-51
2022/04/18 07:19:40;;;;;;;3.15;2.20;;;;;;;27.51;20.16;98635.44;5092304;28;20429;-51
2022/04/18 07:22:06;;;;;;;8.00;2.42;;;;;;;28.55;19.82;98636.63;5090898;28;20062;-51
2022/04/18 07:24:32;;;;;;;10.48;2.33;;;;;;;29.75;18.54;98644.63;5092415;28;20016;-51
2022/04/18 07:27:01;;;;;;;6.25;2.00;;;;;;;30.34;17.84;98641.00;5092134;28;20509;-50
2022/04/18 07:29:30;;;;;;;5.60;1.60;;;;;;;29.92;17.75;98641.00;5092217;28;20020;-52
2022/04/18 07:31:56;;;;;;;4.72;2.20;;;;;;;29.96;17.40;98641.94;5092109;28;20032;-51
2022/04/18 07:34:21;;;;;;;4.30;1.88;;;;;;;30.03;17.29;98634.06;5092175;28;20039;-51
2022/04/18 07:36:48;;;;;;;4.68;2.40;;;;;;;30.97;16.42;98630.03;5091861;28;20052;-52
2022/04/18 07:39:13;;;;;;;4.80;2.70;;;;;;;31.42;15.77;98628.31;5092061;28;20025;-51
2022/04/18 07:41:39;;;;;;;10.65;2.35;;;;;;;31.06;16.05;98630.69;5092110;28;20069;-52
2022/04/18 07:44:05;;;;;;;5.90;2.20;;;;;;;30.37;16.19;98631.44;5090670;28;20054;-51
2022/04/18 07:46:32;;;;;;;4.15;2.00;;;;;;;30.48;15.82;98629.09;5091891;28;20095;-51
2022/04/18 07:48:59;;;;;;;5.90;1.92;;;;;;;30.18;16.20;98626.47;5091941;28;20020;-51
2022/04/18 07:51:42;;;;;;;3.50;2.40;;;;;;;30.88;15.80;98626.59;5092003;28;20532;-51
2022/04/18 07:54:14;;;;;;;7.13;2.78;;;;;;;31.00;15.55;98628.53;5092007;28;20052;-51
2022/04/18 07:56:41;;;;;;;3.40;2.25;;;;;;;30.91;15.21;98625.94;5091882;28;20024;-51
2022/04/18 07:59:07;;;;;;;7.20;3.20;;;;;;;30.81;15.72;98629.84;5090482;28;20032;-51
2022/04/18 08:01:33;;;;;;;7.03;1.80;;;;;;;31.31;15.68;98633.44;5091827;28;20023;-51
2022/04/18 08:04:02;;;;;;;4.35;2.17;;;;;;;32.15;14.84;98624.69;5091738;28;20031;-52
2022/04/18 08:06:33;;;;;;;8.30;2.40;;;;;;;32.79;14.22;98633.00;5090352;28;20020;-52
2022/04/18 08:09:00;;;;;;;3.33;1.92;;;;;;;32.50;14.38;98634.97;5091699;28;20033;-51
2022/04/18 08:11:26;;;;;;;8.50;2.30;;;;;;;32.67;14.14;98631.16;5090781;28;20016;-50
2022/04/18 08:13:53;;;;;;;3.63;2.00;;;;;;;33.12;13.99;98630.00;5095768;28;20028;-51
2022/04/18 08:16:19;;;;;;;4.43;2.00;;;;;;;33.76;13.84;98629.88;5095777;28;20490;-52
2022/04/18 08:18:46;;;;;;;5.82;2.10;;;;;;;34.14;13.75;98634.56;5094378;28;20031;-50
2022/04/18 08:21:14;;;;;;;6.57;1.95;;;;;;;33.33;13.58;98635.13;5094360;28;20024;-50
2022/04/18 08:23:40;;;;;;;9.38;2.50;;;;;;;32.50;14.30;98629.53;5094321;28;20042;-50
2022/04/18 08:26:06;;;;;;;8.73;2.47;;;;;;;32.52;14.47;98626.44;5095511;28;20020;-50
2022/04/18 08:28:32;;;;;;;8.88;2.80;;;;;;;32.86;14.16;98632.41;5095964;28;20028;-51
2022/04/18 08:30:59;;;;;;;3.08;2.05;;;;;;;33.03;14.11;98626.63;5095511;28;20029;-50
2022/04/18 08:33:25;;;;;;;3.88;2.40;;;;;;;33.43;13.90;98631.06;5094188;28;20020;-50
2022/04/18 08:35:51;;;;;;;4.35;2.05;;;;;;;33.45;13.34;98630.72;5095195;28;20101;-51
2022/04/18 08:38:17;;;;;;;5.65;2.25;;;;;;;32.58;14.22;98625.13;5095348;28;20020;-50
2022/04/18 08:40:43;;;;;;;23.17;3.78;;;;;;;32.07;14.17;98622.91;5095288;28;20031;-51
2022/04/18 08:43:10;;;;;;;3.05;1.85;;;;;;;31.41;14.72;98626.72;5095300;28;20024;-50
2022/04/18 08:45:40;;;;;;;3.70;2.30;;;;;;;31.14;14.92;98634.44;5093768;28;20089;-52
2022/04/18 08:53:37;;;;;;;3.70;2.20;;;;;;;31.31;14.72;98625.28;5095113;28;20397;-51
2022/04/18 08:56:03;;;;;;;3.90;2.05;;;;;;;32.38;14.13;98624.16;5094992;28;20492;-51
2022/04/18 08:58:29;;;;;;;2.75;2.30;;;;;;;33.26;13.37;98623.28;5093639;28;20040;-51
2022/04/18 09:00:57;;;;;;;10.38;2.30;;;;;;;33.67;13.64;98616.47;5094876;28;20088;-51
2022/04/18 09:03:23;;;;;;;7.22;2.42;;;;;;;33.60;13.17;98610.84;5094905;28;20020;-51
2022/04/18 09:05:49;;;;;;;6.35;2.33;;;;;;;33.74;12.98;98622.06;5094702;28;20035;-52
2022/04/18 09:08:15;;;;;;;8.13;1.85;;;;;;;34.16;12.68;98617.88;5094791;28;20020;-52
2022/04/18 09:10:42;;;;;;;9.05;2.72;;;;;;;33.79;12.76;98619.06;5094709;28;20023;-52
2022/04/18 09:13:12;;;;;;;4.07;1.88;;;;;;;32.72;13.43;98622.75;5093371;28;20092;-51
2022/04/18 09:15:46;;;;;;;3.20;1.83;;;;;;;32.01;13.53;98622.38;5094720;28;20035;-50
2022/04/18 09:18:23;;;;;;;6.40;2.03;;;;;;;31.82;14.16;98619.47;5094601;28;20035;-51
2022/04/18 09:20:54;;;;;;;3.53;2.10;;;;;;;32.84;13.30;98613.75;5094531;28;20504;-51
2022/04/18 09:23:22;;;;;;;5.93;2.00;;;;;;;33.89;12.44;98616.94;5093453;28;20024;-51
2022/04/18 09:25:55;;;;;;;6.03;1.95;;;;;;;34.94;12.46;98604.88;5093061;28;20482;-52
2022/04/18 09:28:31;;;;;;;3.28;1.80;;;;;;;35.53;11.80;98601.88;5094484;28;20031;-51
2022/04/18 09:31:09;;;;;;;4.47;1.90;;;;;;;36.31;11.45;98598.56;5094410;28;20031;-52
2022/04/18 09:33:38;;;;;;;5.78;2.20;;;;;;;36.28;10.88;98604.75;5093063;28;20069;-51
2022/04/18 09:36:15;;;;;;;4.32;1.70;;;;;;;36.68;10.46;98593.06;5094005;28;20138;-51
2022/04/18 09:38:47;;;;;;;6.03;2.45;;;;;;;36.49;10.37;98604.22;5092902;28;20028;-51
2022/04/18 09:41:24;;;;;;;3.75;2.35;;;;;;;36.71;10.08;98597.78;5094139;28;20016;-51
2022/04/18 09:43:52;;;;;;;3.20;2.00;;;;;;;36.33;10.44;98602.47;5094091;28;20549;-50
2022/04/18 09:46:18;;;;;;;5.22;2.00;;;;;;;35.73;10.85;98594.34;5093948;28;20016;-52
2022/04/18 09:48:46;;;;;;;3.00;1.80;;;;;;;35.18;11.40;98598.28;5092671;28;20028;-52
2022/04/18 09:51:15;;;;;;;3.03;2.08;;;;;;;33.98;12.38;98592.97;5093921;28;20019;-52
2022/04/18 09:53:46;;;;;;;5.47;1.88;;;;;;;33.23;12.47;98600.31;5093897;28;20024;-50
2022/04/18 09:56:16;;;;;;;4.63;2.47;;;;;;;33.72;12.30;98596.34;5093886;28;20512;-51
2022/04/18 09:58:42;;;;;;;10.50;1.90;;;;;;;34.26;11.37;98589.25;5092480;28;20035;-52
2022/04/18 10:01:10;;;;;;;6.40;2.10;;;;;;;34.48;11.65;98587.72;5093778;28;20019;-52
2022/04/18 10:03:37;;;;;;;5.65;2.17;;;;;;;34.88;10.88;98592.72;5092405;28;20073;-52
2022/04/18 10:06:04;;;;;;;3.42;1.90;;;;;;;35.24;10.72;98587.06;5093573;28;20024;-51
2022/04/18 10:08:31;;;;;;;3.53;2.05;;;;;;;35.18;10.71;98584.63;5092270;28;20486;-51
2022/04/18 10:10:58;;;;;;;4.80;1.80;;;;;;;35.38;10.82;98582.56;5093524;28;20020;-51
2022/04/18 10:13:28;;;;;;;5.40;2.40;;;;;;;35.63;10.49;98567.69;5092200;28;20045;-50
2022/04/18 10:15:55;;;;;;;4.18;1.88;;;;;;;35.82;10.33;98574.94;5092133;28;20024;-51
2022/04/18 10:18:21;;;;;;;5.22;1.83;;;;;;;36.11;10.16;98578.81;5093475;28;20028;-50
2022/04/18 10:21:08;;;;;;;2.88;1.77;;;;;;;36.24;9.90;98563.75;5093317;28;20385;-52
2022/04/18 10:23:49;;;;;;;5.40;1.83;;;;;;;36.34;9.70;98559.53;5093336;28;20024;-51
2022/04/18 10:26:40;;;;;;;5.30;1.80;;;;;;;35.82;9.54;98564.84;5093233;28;20016;-51
2022/04/18 10:29:37;;;;;;;2.65;1.40;;;;;;;35.49;9.29;98560.09;5093291;28;20034;-51
2022/04/18 10:32:07;;;;;;;5.90;1.80;;;;;;;35.52;9.57;98551.19;5092149;28;20506;-51
2022/04/18 10:34:34;;;;;;;5.35;2.15;;;;;;;35.48;9.92;98544.88;5092604;28;20024;-51
2022/04/18 10:37:02;;;;;;;5.20;1.73;;;;;;;35.20;9.84;98551.53;5093133;28;20028;-51
2022/04/18 10:39:38;;;;;;;4.32;1.90;;;;;;;34.84;10.23;98548.25;5091692;28;20141;-51
2022/04/18 10:42:22;;;;;;;6.40;1.85;;;;;;;34.99;10.83;98541.03;5092978;28;20100;-52
2022/04/18 10:45:17;;;;;;;1.95;1.60;;;;;;;35.17;10.22;98538.59;5091583;28;20054;-51
2022/04/18 10:48:05;;;;;;;3.55;1.70;;;;;;;35.41;10.06;98542.84;5074104;28;20032;-51
2022/04/18 10:50:48;;;;;;;4.68;1.80;;;;;;;35.59;9.87;98523.94;5091525;28;20123;-52
2022/04/18 10:53:19;;;;;;;3.85;1.70;;;;;;;35.79;9.82;98528.09;5092794;28;20020;-50
2022/04/18 10:55:50;;;;;;;5.18;1.83;;;;;;;36.07;9.74;98523.34;5092685;28;20020;-52
2022/04/18 10:58:20;;;;;;;4.55;1.73;;;;;;;35.08;10.25;98522.50;5092749;28;20103;-52
2022/04/18 11:00:52;;;;;;;3.45;1.70;;;;;;;34.54;10.58;98513.47;5091349;28;20085;-51
2022/04/18 11:03:41;;;;;;;2.67;1.83;;;;;;;34.70;10.69;98518.81;5091289;28;20024;-51
2022/04/18 11:06:15;;;;;;;3.33;1.92;;;;;;;34.52;10.97;98523.94;5092537;28;20016;-52
2022/04/18 11:08:56;;;;;;;1.60;1.50;;;;;;;34.23;10.86;98514.50;5092518;28;20055;-52
2022/04/18 11:11:22;;;;;;;4.88;1.60;;;;;;;34.54;11.25;98512.69;5092445;28;20024;-52
2022/04/18 11:13:49;;;;;;;3.33;2.47;;;;;;;34.61;10.94;98515.50;5092446;28;20366;-51
2022/04/18 11:16:27;;;;;;;2.47;2.17;;;;;;;34.46;10.39;98511.78;5091103;28;20401;-51
2022/04/18 11:19:14;;;;;;;5.20;1.58;;;;;;;34.33;10.78;98510.38;5091089;28;20123;-51
2022/04/18 11:24:51;;;;;;;15.38;13.88;;;;;;;34.45;10.48;98503.94;5092626;28;20486;-52
2022/04/18 11:27:26;;;;;;;3.70;3.40;;;;;;;34.36;10.06;98496.81;5090872;28;20030;-51
2022/04/18 11:30:11;;;;;;;8.10;7.20;;;;;;;34.11;10.28;98492.84;5092192;28;20024;-51
2022/04/18 11:32:46;;;;;;;6.00;5.50;;;;;;;34.25;10.39;98484.97;5092221;28;20055;-52
2022/04/18 11:35:13;;;;;;;14.07;11.73;;;;;;;33.96;10.70;98495.31;5091812;28;20084;-52
2022/04/18 11:37:43;;;;;;;6.40;5.13;;;;;;;33.91;10.47;98495.63;5092126;28;20389;-51
2022/04/18 11:40:11;;;;;;;3.22;2.80;;;;;;;33.80;10.52;98484.50;5092041;28;20494;-52
2022/04/18 11:42:39;;;;;;;7.57;3.63;;;;;;;33.88;10.59;98488.16;5090660;28;20610;-52
2022/04/18 11:45:08;;;;;;;2.88;1.90;;;;;;;34.06;10.04;98490.44;5091902;28;20067;-51
2022/04/18 11:47:38;;;;;;;5.72;5.20;;;;;;;34.30;9.87;98475.69;5091618;28;20024;-51
2022/04/18 11:50:05;;;;;;;16.58;14.93;;;;;;;34.32;9.81;98482.34;5091873;28;20020;-51
2022/04/18 11:52:37;;;;;;;2.80;1.70;;;;;;;34.13;10.03;98480.44;5091937;28;20389;-52
2022/04/18 11:55:15;;;;;;;5.20;2.58;;;;;;;33.78;10.55;98480.56;5091847;28;20028;-52